sensor_id;sensor_type;location;lat;lon;timestamp;pressure;altitude;pressure_sealevel;temperature;humidity
62333;BME280;48624;49.812;8.562;2024-02-23T00:02:18;98322.91;;;8.09;78.38
62333;BME280;48624;49.812;8.562;2024-02-23T00:04:43;98330.69;;;7.90;78.37
62333;BME280;48624;49.812;8.562;2024-02-23T00:07:11;98340.97;;;7.94;78.53
62333;BME280;48624;49.812;8.562;2024-02-23T00:09:37;98357.72;;;7.53;79.44
62333;BME280;48624;49.812;8.562;2024-02-23T00:12:03;98360.13;;;7.86;79.25
62333;BME280;48624;49.812;8.562;2024-02-23T00:14:30;98360.53;;;7.61;80.91
62333;BME280;48624;49.812;8.562;2024-02-23T00:17:01;98367.69;;;7.40;81.51
62333;BME280;48624;49.812;8.562;2024-02-23T00:19:29;98386.53;;;7.35;83.69
62333;BME280;48624;49.812;8.562;2024-02-23T00:21:56;98398.47;;;7.49;84.04
62333;BME280;48624;49.812;8.562;2024-02-23T00:24:24;98401.06;;;7.29;85.90
62333;BME280;48624;49.812;8.562;2024-02-23T00:26:50;98410.28;;;7.45;85.25
62333;BME280;48624;49.812;8.562;2024-02-23T00:29:16;98405.84;;;7.04;87.86
62333;BME280;48624;49.812;8.562;2024-02-23T00:31:42;98414.78;;;7.23;87.34
62333;BME280;48624;49.812;8.562;2024-02-23T00:34:09;98418.44;;;7.01;89.27
62333;BME280;48624;49.812;8.562;2024-02-23T00:36:38;98413.19;;;7.11;89.05
62333;BME280;48624;49.812;8.562;2024-02-23T00:39:04;98417.44;;;7.33;87.27
62333;BME280;48624;49.812;8.562;2024-02-23T00:41:29;98425.94;;;7.05;88.99
62333;BME280;48624;49.812;8.562;2024-02-23T00:43:54;98426.59;;;7.29;86.05
62333;BME280;48624;49.812;8.562;2024-02-23T00:46:19;98415.34;;;6.96;88.47
62333;BME280;48624;49.812;8.562;2024-02-23T00:48:45;98419.66;;;6.97;88.82
62333;BME280;48624;49.812;8.562;2024-02-23T00:51:10;98407.34;;;6.97;86.95
62333;BME280;48624;49.812;8.562;2024-02-23T00:53:35;98409.75;;;7.10;85.68
62333;BME280;48624;49.812;8.562;2024-02-23T00:56:00;98432.38;;;6.91;86.82
62333;BME280;48624;49.812;8.562;2024-02-23T00:58:26;98418.84;;;6.96;85.90
62333;BME280;48624;49.812;8.562;2024-02-23T01:00:51;98424.81;;;6.77;86.75
62333;BME280;48624;49.812;8.562;2024-02-23T01:03:16;98431.97;;;6.65;87.80
62333;BME280;48624;49.812;8.562;2024-02-23T01:05:42;98423.94;;;6.66;87.90
62333;BME280;48624;49.812;8.562;2024-02-23T01:08:08;98424.19;;;6.63;87.92
62333;BME280;48624;49.812;8.562;2024-02-23T01:10:33;98444.66;;;6.81;86.61
62333;BME280;48624;49.812;8.562;2024-02-23T01:12:58;98456.09;;;6.70;86.65
62333;BME280;48624;49.812;8.562;2024-02-23T01:15:23;98463.47;;;6.55;88.58
62333;BME280;48624;49.812;8.562;2024-02-23T01:17:49;98443.47;;;6.64;87.95
62333;BME280;48624;49.812;8.562;2024-02-23T01:20:14;98456.59;;;6.43;89.35
62333;BME280;48624;49.812;8.562;2024-02-23T01:22:39;98469.69;;;6.54;88.45
62333;BME280;48624;49.812;8.562;2024-02-23T01:25:05;98471.84;;;6.49;88.75
62333;BME280;48624;49.812;8.562;2024-02-23T01:27:31;98487.59;;;6.39;90.07
62333;BME280;48624;49.812;8.562;2024-02-23T01:29:58;98489.78;;;6.22;91.67
62333;BME280;48624;49.812;8.562;2024-02-23T01:32:23;98497.03;;;6.30;91.16
62333;BME280;48624;49.812;8.562;2024-02-23T01:34:48;98495.09;;;6.11;92.50
62333;BME280;48624;49.812;8.562;2024-02-23T01:37:14;98494.13;;;6.12;92.32
62333;BME280;48624;49.812;8.562;2024-02-23T01:39:39;98496.13;;;6.20;91.45
62333;BME280;48624;49.812;8.562;2024-02-23T01:42:04;98506.44;;;6.44;89.78
62333;BME280;48624;49.812;8.562;2024-02-23T01:44:30;98518.28;;;6.06;91.00
62333;BME280;48624;49.812;8.562;2024-02-23T01:46:55;98522.69;;;6.17;90.70
62333;BME280;48624;49.812;8.562;2024-02-23T01:49:20;98527.13;;;5.93;92.67
62333;BME280;48624;49.812;8.562;2024-02-23T01:51:48;98519.22;;;6.05;89.17
62333;BME280;48624;49.812;8.562;2024-02-23T01:54:15;98520.81;;;6.40;87.36
62333;BME280;48624;49.812;8.562;2024-02-23T01:56:41;98531.59;;;6.25;87.36
62333;BME280;48624;49.812;8.562;2024-02-23T01:59:09;98533.00;;;6.41;85.36
62333;BME280;48624;49.812;8.562;2024-02-23T02:01:35;98529.59;;;6.18;85.74
62333;BME280;48624;49.812;8.562;2024-02-23T02:04:02;98545.13;;;6.21;84.17
62333;BME280;48624;49.812;8.562;2024-02-23T02:06:27;98545.34;;;6.29;83.58
62333;BME280;48624;49.812;8.562;2024-02-23T02:08:53;98552.16;;;6.32;83.65
62333;BME280;48624;49.812;8.562;2024-02-23T02:11:19;98559.34;;;6.30;83.25
62333;BME280;48624;49.812;8.562;2024-02-23T02:13:46;98574.97;;;6.43;82.32
62333;BME280;48624;49.812;8.562;2024-02-23T02:16:11;98581.47;;;6.16;84.16
62333;BME280;48624;49.812;8.562;2024-02-23T02:18:36;98573.47;;;6.06;83.65
62333;BME280;48624;49.812;8.562;2024-02-23T02:21:02;98584.97;;;6.05;83.27
62333;BME280;48624;49.812;8.562;2024-02-23T02:23:27;98593.31;;;5.99;82.99
62333;BME280;48624;49.812;8.562;2024-02-23T02:25:56;98586.41;;;6.09;81.90
62333;BME280;48624;49.812;8.562;2024-02-23T02:28:23;98579.22;;;6.11;81.44
62333;BME280;48624;49.812;8.562;2024-02-23T02:30:49;98593.41;;;5.63;84.05
62333;BME280;48624;49.812;8.562;2024-02-23T02:33:16;98597.13;;;5.94;82.52
62333;BME280;48624;49.812;8.562;2024-02-23T02:35:42;98583.75;;;5.86;83.25
62333;BME280;48624;49.812;8.562;2024-02-23T02:38:07;98593.03;;;5.33;87.20
62333;BME280;48624;49.812;8.562;2024-02-23T02:40:33;98581.78;;;5.20;88.47
62333;BME280;48624;49.812;8.562;2024-02-23T02:42:58;98595.94;;;5.06;88.03
62333;BME280;48624;49.812;8.562;2024-02-23T02:45:23;98587.72;;;5.10;89.00
62333;BME280;48624;49.812;8.562;2024-02-23T02:47:50;98588.31;;;5.03;90.01
62333;BME280;48624;49.812;8.562;2024-02-23T02:50:16;98595.69;;;4.97;90.00
62333;BME280;48624;49.812;8.562;2024-02-23T02:52:42;98602.38;;;5.02;90.63
62333;BME280;48624;49.812;8.562;2024-02-23T02:55:07;98599.91;;;4.76;91.42
62333;BME280;48624;49.812;8.562;2024-02-23T02:57:33;98611.56;;;4.96;91.26
62333;BME280;48624;49.812;8.562;2024-02-23T03:00:01;98621.88;;;4.86;90.85
62333;BME280;48624;49.812;8.562;2024-02-23T03:02:26;98607.28;;;5.06;90.83
62333;BME280;48624;49.812;8.562;2024-02-23T03:04:52;98616.44;;;4.89;91.13
62333;BME280;48624;49.812;8.562;2024-02-23T03:07:20;98619.41;;;4.84;91.42
62333;BME280;48624;49.812;8.562;2024-02-23T03:09:46;98621.28;;;4.82;91.80
62333;BME280;48624;49.812;8.562;2024-02-23T03:12:11;98625.41;;;4.98;91.31
62333;BME280;48624;49.812;8.562;2024-02-23T03:14:37;98625.28;;;4.99;91.51
62333;BME280;48624;49.812;8.562;2024-02-23T03:17:06;98626.34;;;4.97;91.34
62333;BME280;48624;49.812;8.562;2024-02-23T03:19:32;98627.69;;;5.03;90.68
62333;BME280;48624;49.812;8.562;2024-02-23T03:21:58;98636.53;;;5.13;90.34
62333;BME280;48624;49.812;8.562;2024-02-23T03:24:23;98631.28;;;5.13;90.27
62333;BME280;48624;49.812;8.562;2024-02-23T03:26:49;98644.50;;;5.00;90.29
62333;BME280;48624;49.812;8.562;2024-02-23T03:29:14;98646.69;;;5.18;90.15
62333;BME280;48624;49.812;8.562;2024-02-23T03:31:39;98646.31;;;5.11;89.26
62333;BME280;48624;49.812;8.562;2024-02-23T03:34:06;98658.88;;;5.19;89.92
62333;BME280;48624;49.812;8.562;2024-02-23T03:36:31;98649.09;;;5.21;89.85
62333;BME280;48624;49.812;8.562;2024-02-23T03:38:57;98646.13;;;5.25;88.79
62333;BME280;48624;49.812;8.562;2024-02-23T03:41:22;98654.69;;;5.16;89.07
62333;BME280;48624;49.812;8.562;2024-02-23T03:43:47;98643.75;;;5.34;88.73
62333;BME280;48624;49.812;8.562;2024-02-23T03:46:12;98643.91;;;5.32;88.92
62333;BME280;48624;49.812;8.562;2024-02-23T03:48:40;98635.16;;;5.32;87.91
62333;BME280;48624;49.812;8.562;2024-02-23T03:51:05;98630.78;;;5.55;87.42
62333;BME280;48624;49.812;8.562;2024-02-23T03:53:31;98625.59;;;5.19;89.42
62333;BME280;48624;49.812;8.562;2024-02-23T03:55:57;98642.50;;;5.51;87.82
62333;BME280;48624;49.812;8.562;2024-02-23T03:58:24;98635.09;;;5.56;87.77
62333;BME280;48624;49.812;8.562;2024-02-23T04:00:49;98627.19;;;5.33;89.59
62333;BME280;48624;49.812;8.562;2024-02-23T04:03:14;98635.19;;;5.43;88.13
62333;BME280;48624;49.812;8.562;2024-02-23T04:05:40;98635.03;;;5.22;89.95
62333;BME280;48624;49.812;8.562;2024-02-23T04:08:05;98636.28;;;5.05;91.07
62333;BME280;48624;49.812;8.562;2024-02-23T04:10:31;98631.19;;;5.14;90.35
62333;BME280;48624;49.812;8.562;2024-02-23T04:13:00;98634.09;;;5.23;89.98
62333;BME280;48624;49.812;8.562;2024-02-23T04:15:26;98630.22;;;5.16;90.32
62333;BME280;48624;49.812;8.562;2024-02-23T04:17:51;98633.84;;;5.26;89.94
62333;BME280;48624;49.812;8.562;2024-02-23T04:20:17;98634.16;;;5.10;90.24
62333;BME280;48624;49.812;8.562;2024-02-23T04:22:42;98638.25;;;5.25;89.82
62333;BME280;48624;49.812;8.562;2024-02-23T04:25:08;98647.00;;;5.02;91.48
62333;BME280;48624;49.812;8.562;2024-02-23T04:27:33;98642.44;;;4.92;92.67
62333;BME280;48624;49.812;8.562;2024-02-23T04:29:58;98644.59;;;4.74;92.40
62333;BME280;48624;49.812;8.562;2024-02-23T04:32:26;98644.28;;;5.03;91.02
62333;BME280;48624;49.812;8.562;2024-02-23T04:34:51;98644.75;;;4.72;92.89
62333;BME280;48624;49.812;8.562;2024-02-23T04:37:18;98648.69;;;5.03;91.29
62333;BME280;48624;49.812;8.562;2024-02-23T04:39:44;98657.06;;;4.83;91.88
62333;BME280;48624;49.812;8.562;2024-02-23T04:42:09;98645.13;;;4.79;92.57
62333;BME280;48624;49.812;8.562;2024-02-23T04:44:35;98649.31;;;4.82;91.60
62333;BME280;48624;49.812;8.562;2024-02-23T04:47:01;98653.50;;;4.84;92.32
62333;BME280;48624;49.812;8.562;2024-02-23T04:49:26;98666.06;;;4.92;91.36
62333;BME280;48624;49.812;8.562;2024-02-23T04:51:52;98652.13;;;4.79;93.45
62333;BME280;48624;49.812;8.562;2024-02-23T04:54:17;98657.22;;;4.93;92.04
62333;BME280;48624;49.812;8.562;2024-02-23T04:56:43;98657.94;;;4.95;91.84
62333;BME280;48624;49.812;8.562;2024-02-23T04:59:08;98658.34;;;4.78;92.93
62333;BME280;48624;49.812;8.562;2024-02-23T05:01:37;98646.34;;;4.86;92.44
62333;BME280;48624;49.812;8.562;2024-02-23T05:04:03;98649.66;;;5.13;90.49
62333;BME280;48624;49.812;8.562;2024-02-23T05:06:29;98651.81;;;4.83;92.15
62333;BME280;48624;49.812;8.562;2024-02-23T05:08:57;98652.72;;;4.71;92.74
62333;BME280;48624;49.812;8.562;2024-02-23T05:11:23;98645.72;;;4.58;92.66
62333;BME280;48624;49.812;8.562;2024-02-23T05:13:50;98660.63;;;4.58;93.49
62333;BME280;48624;49.812;8.562;2024-02-23T05:16:15;98658.38;;;4.40;94.31
62333;BME280;48624;49.812;8.562;2024-02-23T05:18:41;98659.13;;;4.42;94.59
62333;BME280;48624;49.812;8.562;2024-02-23T05:21:06;98653.41;;;4.49;94.52
62333;BME280;48624;49.812;8.562;2024-02-23T05:23:32;98653.41;;;4.49;94.44
62333;BME280;48624;49.812;8.562;2024-02-23T05:25:57;98656.16;;;4.47;94.38
62333;BME280;48624;49.812;8.562;2024-02-23T05:28:23;98655.94;;;4.50;94.28
62333;BME280;48624;49.812;8.562;2024-02-23T05:30:48;98656.66;;;4.52;94.34
62333;BME280;48624;49.812;8.562;2024-02-23T05:33:13;98655.84;;;4.52;95.23
62333;BME280;48624;49.812;8.562;2024-02-23T05:35:38;98651.25;;;4.42;95.55
62333;BME280;48624;49.812;8.562;2024-02-23T05:38:04;98647.22;;;4.50;94.78
62333;BME280;48624;49.812;8.562;2024-02-23T05:40:31;98650.75;;;4.62;94.63
62333;BME280;48624;49.812;8.562;2024-02-23T05:42:58;98654.22;;;4.62;94.70
62333;BME280;48624;49.812;8.562;2024-02-23T05:45:23;98647.97;;;4.76;94.82
62333;BME280;48624;49.812;8.562;2024-02-23T05:47:48;98639.88;;;4.79;94.44
62333;BME280;48624;49.812;8.562;2024-02-23T05:50:14;98643.69;;;4.75;93.53
62333;BME280;48624;49.812;8.562;2024-02-23T05:52:39;98639.31;;;4.87;92.99
62333;BME280;48624;49.812;8.562;2024-02-23T05:55:04;98640.81;;;4.78;92.89
62333;BME280;48624;49.812;8.562;2024-02-23T05:57:30;98647.84;;;4.78;92.49
62333;BME280;48624;49.812;8.562;2024-02-23T05:59:55;98651.97;;;4.93;92.14
62333;BME280;48624;49.812;8.562;2024-02-23T06:02:22;98646.63;;;4.95;92.04
62333;BME280;48624;49.812;8.562;2024-02-23T06:04:47;98643.72;;;4.86;91.02
62333;BME280;48624;49.812;8.562;2024-02-23T06:07:14;98657.22;;;4.93;89.20
62333;BME280;48624;49.812;8.562;2024-02-23T06:09:43;98668.16;;;5.11;88.77
62333;BME280;48624;49.812;8.562;2024-02-23T06:12:10;98665.28;;;5.03;88.10
62333;BME280;48624;49.812;8.562;2024-02-23T06:14:35;98670.19;;;5.08;88.03
62333;BME280;48624;49.812;8.562;2024-02-23T06:17:02;98680.59;;;5.21;87.71
62333;BME280;48624;49.812;8.562;2024-02-23T06:19:28;98678.56;;;5.24;88.49
62333;BME280;48624;49.812;8.562;2024-02-23T06:21:54;98675.19;;;5.11;87.37
62333;BME280;48624;49.812;8.562;2024-02-23T06:24:19;98690.34;;;5.43;86.38
62333;BME280;48624;49.812;8.562;2024-02-23T06:26:45;98684.78;;;5.23;86.50
62333;BME280;48624;49.812;8.562;2024-02-23T06:29:11;98694.50;;;5.34;85.44
62333;BME280;48624;49.812;8.562;2024-02-23T06:31:38;98684.69;;;5.25;85.96
62333;BME280;48624;49.812;8.562;2024-02-23T06:34:05;98693.88;;;5.31;83.92
62333;BME280;48624;49.812;8.562;2024-02-23T06:36:30;98698.19;;;5.32;85.05
62333;BME280;48624;49.812;8.562;2024-02-23T06:38:55;98692.56;;;5.72;83.90
62333;BME280;48624;49.812;8.562;2024-02-23T06:41:20;98696.84;;;5.26;84.40
62333;BME280;48624;49.812;8.562;2024-02-23T06:43:46;98712.38;;;5.65;83.63
62333;BME280;48624;49.812;8.562;2024-02-23T06:46:11;98706.09;;;5.43;84.77
62333;BME280;48624;49.812;8.562;2024-02-23T06:48:37;98710.50;;;5.31;83.72
62333;BME280;48624;49.812;8.562;2024-02-23T06:51:03;98703.81;;;5.74;83.22
62333;BME280;48624;49.812;8.562;2024-02-23T06:53:30;98718.78;;;5.49;84.20
62333;BME280;48624;49.812;8.562;2024-02-23T06:55:56;98712.91;;;5.46;82.39
62333;BME280;48624;49.812;8.562;2024-02-23T06:58:24;98715.13;;;5.75;81.56
62333;BME280;48624;49.812;8.562;2024-02-23T07:00:49;98711.44;;;5.66;82.41
62333;BME280;48624;49.812;8.562;2024-02-23T07:03:14;98712.16;;;5.68;82.17
62333;BME280;48624;49.812;8.562;2024-02-23T07:05:40;98710.03;;;5.85;82.47
62333;BME280;48624;49.812;8.562;2024-02-23T07:08:07;98715.41;;;5.94;82.38
62333;BME280;48624;49.812;8.562;2024-02-23T07:10:33;98714.41;;;5.73;82.68
62333;BME280;48624;49.812;8.562;2024-02-23T07:13:01;98709.28;;;5.71;82.86
62333;BME280;48624;49.812;8.562;2024-02-23T07:15:27;98713.09;;;5.67;82.57
62333;BME280;48624;49.812;8.562;2024-02-23T07:17:52;98705.19;;;6.03;80.99
62333;BME280;48624;49.812;8.562;2024-02-23T07:20:18;98709.63;;;5.78;82.00
62333;BME280;48624;49.812;8.562;2024-02-23T07:22:44;98712.50;;;5.63;82.67
62333;BME280;48624;49.812;8.562;2024-02-23T07:25:11;98709.22;;;5.48;83.48
62333;BME280;48624;49.812;8.562;2024-02-23T07:27:36;98700.78;;;5.67;82.17
62333;BME280;48624;49.812;8.562;2024-02-23T07:30:01;98708.84;;;5.41;82.83
62333;BME280;48624;49.812;8.562;2024-02-23T07:32:29;98688.31;;;5.47;82.27
62333;BME280;48624;49.812;8.562;2024-02-23T07:34:55;98694.38;;;5.36;82.77
62333;BME280;48624;49.812;8.562;2024-02-23T07:37:20;98696.16;;;5.35;82.13
62333;BME280;48624;49.812;8.562;2024-02-23T07:39:46;98695.53;;;5.20;83.08
62333;BME280;48624;49.812;8.562;2024-02-23T07:42:14;98699.84;;;5.33;82.91
62333;BME280;48624;49.812;8.562;2024-02-23T07:44:43;98695.69;;;5.06;84.95
62333;BME280;48624;49.812;8.562;2024-02-23T07:47:11;98706.25;;;4.93;85.58
62333;BME280;48624;49.812;8.562;2024-02-23T07:49:37;98710.47;;;5.07;85.30
62333;BME280;48624;49.812;8.562;2024-02-23T07:52:03;98713.72;;;5.10;84.23
62333;BME280;48624;49.812;8.562;2024-02-23T07:54:28;98718.63;;;5.15;85.51
62333;BME280;48624;49.812;8.562;2024-02-23T07:56:54;98714.91;;;5.31;84.54
62333;BME280;48624;49.812;8.562;2024-02-23T07:59:25;98723.63;;;5.31;84.53
62333;BME280;48624;49.812;8.562;2024-02-23T08:01:58;98728.16;;;5.40;84.59
62333;BME280;48624;49.812;8.562;2024-02-23T08:04:23;98734.69;;;5.59;84.26
62333;BME280;48624;49.812;8.562;2024-02-23T08:06:48;98728.53;;;5.72;84.20
62333;BME280;48624;49.812;8.562;2024-02-23T08:09:14;98730.56;;;5.79;83.10
62333;BME280;48624;49.812;8.562;2024-02-23T08:11:39;98737.38;;;5.82;81.23
62333;BME280;48624;49.812;8.562;2024-02-23T08:14:05;98741.09;;;5.91;81.57
62333;BME280;48624;49.812;8.562;2024-02-23T08:16:30;98741.88;;;6.27;81.76
62333;BME280;48624;49.812;8.562;2024-02-23T08:18:56;98753.72;;;6.21;81.51
62333;BME280;48624;49.812;8.562;2024-02-23T08:21:22;98736.75;;;6.37;80.68
62333;BME280;48624;49.812;8.562;2024-02-23T08:23:47;98742.59;;;6.52;80.53
62333;BME280;48624;49.812;8.562;2024-02-23T08:26:12;98738.63;;;6.35;81.41
62333;BME280;48624;49.812;8.562;2024-02-23T08:28:38;98729.94;;;6.34;78.57
62333;BME280;48624;49.812;8.562;2024-02-23T08:31:03;98725.03;;;6.30;78.84
62333;BME280;48624;49.812;8.562;2024-02-23T08:33:28;98727.88;;;6.49;79.58
62333;BME280;48624;49.812;8.562;2024-02-23T08:35:54;98740.91;;;6.39;78.32
62333;BME280;48624;49.812;8.562;2024-02-23T08:38:19;98730.38;;;6.39;79.04
62333;BME280;48624;49.812;8.562;2024-02-23T08:40:44;98727.28;;;6.46;77.62
62333;BME280;48624;49.812;8.562;2024-02-23T08:43:12;98730.50;;;6.61;77.10
62333;BME280;48624;49.812;8.562;2024-02-23T08:45:39;98727.19;;;6.47;78.23
62333;BME280;48624;49.812;8.562;2024-02-23T08:48:04;98730.75;;;6.58;78.44
62333;BME280;48624;49.812;8.562;2024-02-23T08:50:31;98738.25;;;6.74;76.97
62333;BME280;48624;49.812;8.562;2024-02-23T08:52:56;98731.78;;;6.78;76.80
62333;BME280;48624;49.812;8.562;2024-02-23T08:55:22;98740.53;;;6.78;75.72
62333;BME280;48624;49.812;8.562;2024-02-23T08:57:48;98742.47;;;6.76;76.06
62333;BME280;48624;49.812;8.562;2024-02-23T09:00:14;98752.22;;;6.97;75.08
62333;BME280;48624;49.812;8.562;2024-02-23T09:02:40;98748.03;;;6.94;74.79
62333;BME280;48624;49.812;8.562;2024-02-23T09:05:08;98750.28;;;6.99;75.02
62333;BME280;48624;49.812;8.562;2024-02-23T09:07:33;98755.16;;;7.27;76.29
62333;BME280;48624;49.812;8.562;2024-02-23T09:09:58;98763.03;;;7.27;75.24
62333;BME280;48624;49.812;8.562;2024-02-23T09:12:24;98753.38;;;7.48;75.81
62333;BME280;48624;49.812;8.562;2024-02-23T09:14:50;98760.09;;;7.74;74.43
62333;BME280;48624;49.812;8.562;2024-02-23T09:17:15;98748.97;;;7.91;73.65
62333;BME280;48624;49.812;8.562;2024-02-23T09:19:41;98746.97;;;7.62;72.87
62333;BME280;48624;49.812;8.562;2024-02-23T09:22:06;98744.91;;;7.66;73.78
62333;BME280;48624;49.812;8.562;2024-02-23T09:24:32;98733.41;;;7.88;73.51
62333;BME280;48624;49.812;8.562;2024-02-23T09:26:57;98741.47;;;8.18;71.12
62333;BME280;48624;49.812;8.562;2024-02-23T09:29:24;98727.28;;;8.09;73.07
62333;BME280;48624;49.812;8.562;2024-02-23T09:31:50;98739.31;;;7.59;71.52
62333;BME280;48624;49.812;8.562;2024-02-23T09:34:15;98740.59;;;7.65;70.72
62333;BME280;48624;49.812;8.562;2024-02-23T09:36:40;98739.25;;;7.92;70.45
62333;BME280;48624;49.812;8.562;2024-02-23T09:39:07;98731.88;;;8.17;69.19
62333;BME280;48624;49.812;8.562;2024-02-23T09:41:34;98734.22;;;7.89;69.96
62333;BME280;48624;49.812;8.562;2024-02-23T09:44:01;98726.44;;;8.09;70.05
62333;BME280;48624;49.812;8.562;2024-02-23T09:46:27;98725.06;;;8.86;67.65
62333;BME280;48624;49.812;8.562;2024-02-23T09:48:53;98714.94;;;8.92;68.29
62333;BME280;48624;49.812;8.562;2024-02-23T09:51:22;98723.53;;;8.94;67.31
62333;BME280;48624;49.812;8.562;2024-02-23T09:53:49;98719.88;;;8.65;68.19
62333;BME280;48624;49.812;8.562;2024-02-23T09:56:17;98724.19;;;8.66;68.37
62333;BME280;48624;49.812;8.562;2024-02-23T09:58:43;98722.13;;;8.70;68.13
62333;BME280;48624;49.812;8.562;2024-02-23T10:01:11;98728.50;;;8.67;69.13
62333;BME280;48624;49.812;8.562;2024-02-23T10:03:37;98727.38;;;8.39;68.53
62333;BME280;48624;49.812;8.562;2024-02-23T10:06:04;98744.75;;;8.72;69.06
62333;BME280;48624;49.812;8.562;2024-02-23T10:08:30;98733.75;;;8.05;69.05
62333;BME280;48624;49.812;8.562;2024-02-23T10:10:55;98730.47;;;8.44;69.61
62333;BME280;48624;49.812;8.562;2024-02-23T10:13:24;98733.78;;;8.67;68.67
62333;BME280;48624;49.812;8.562;2024-02-23T10:15:53;98732.78;;;8.58;69.50
62333;BME280;48624;49.812;8.562;2024-02-23T10:18:19;98736.66;;;8.23;70.14
62333;BME280;48624;49.812;8.562;2024-02-23T10:20:45;98731.97;;;8.05;70.00
62333;BME280;48624;49.812;8.562;2024-02-23T10:23:11;98742.34;;;8.28;69.56
62333;BME280;48624;49.812;8.562;2024-02-23T10:25:37;98729.38;;;8.15;69.54
62333;BME280;48624;49.812;8.562;2024-02-23T10:28:03;98737.91;;;8.29;70.26
62333;BME280;48624;49.812;8.562;2024-02-23T10:30:30;98733.97;;;8.44;71.06
62333;BME280;48624;49.812;8.562;2024-02-23T10:32:56;98724.31;;;8.55;70.66
62333;BME280;48624;49.812;8.562;2024-02-23T10:35:22;98721.31;;;8.48;70.20
62333;BME280;48624;49.812;8.562;2024-02-23T10:37:49;98723.22;;;8.05;70.08
62333;BME280;48624;49.812;8.562;2024-02-23T10:40:19;98720.19;;;8.10;68.61
62333;BME280;48624;49.812;8.562;2024-02-23T10:42:46;98714.00;;;8.21;69.53
62333;BME280;48624;49.812;8.562;2024-02-23T10:45:20;98712.63;;;7.95;69.74
62333;BME280;48624;49.812;8.562;2024-02-23T10:47:51;98719.16;;;8.53;70.13
62333;BME280;48624;49.812;8.562;2024-02-23T10:50:17;98714.06;;;8.40;70.08
62333;BME280;48624;49.812;8.562;2024-02-23T10:52:45;98726.91;;;8.24;68.68
62333;BME280;48624;49.812;8.562;2024-02-23T10:55:12;98718.34;;;8.63;68.89
62333;BME280;48624;49.812;8.562;2024-02-23T10:57:38;98703.22;;;8.43;69.22
62333;BME280;48624;49.812;8.562;2024-02-23T11:00:04;98708.50;;;8.74;69.84
62333;BME280;48624;49.812;8.562;2024-02-23T11:02:34;98710.72;;;8.38;69.97
62333;BME280;48624;49.812;8.562;2024-02-23T11:05:01;98716.56;;;8.63;70.32
62333;BME280;48624;49.812;8.562;2024-02-23T11:07:29;98720.41;;;8.28;68.29
62333;BME280;48624;49.812;8.562;2024-02-23T11:09:58;98721.56;;;8.35;70.38
62333;BME280;48624;49.812;8.562;2024-02-23T11:12:29;98713.38;;;8.38;72.65
62333;BME280;48624;49.812;8.562;2024-02-23T11:14:59;98717.97;;;8.46;72.17
62333;BME280;48624;49.812;8.562;2024-02-23T11:17:32;98723.50;;;8.74;70.96
62333;BME280;48624;49.812;8.562;2024-02-23T11:20:03;98707.34;;;8.57;69.43
62333;BME280;48624;49.812;8.562;2024-02-23T11:22:33;98709.50;;;8.73;69.35
62333;BME280;48624;49.812;8.562;2024-02-23T11:25:00;98700.09;;;8.18;69.22
62333;BME280;48624;49.812;8.562;2024-02-23T11:27:30;98712.22;;;8.31;69.87
62333;BME280;48624;49.812;8.562;2024-02-23T11:30:04;98700.72;;;8.63;70.10
62333;BME280;48624;49.812;8.562;2024-02-23T11:32:38;98694.72;;;8.30;70.28
62333;BME280;48624;49.812;8.562;2024-02-23T11:35:06;98698.41;;;8.49;71.88
62333;BME280;48624;49.812;8.562;2024-02-23T11:37:31;98694.47;;;8.64;71.77
62333;BME280;48624;49.812;8.562;2024-02-23T11:39:59;98692.28;;;9.09;69.62
62333;BME280;48624;49.812;8.562;2024-02-23T11:42:27;98689.91;;;8.96;69.02
62333;BME280;48624;49.812;8.562;2024-02-23T11:44:52;98692.84;;;8.93;67.63
62333;BME280;48624;49.812;8.562;2024-02-23T11:47:19;98692.53;;;8.76;68.04
62333;BME280;48624;49.812;8.562;2024-02-23T11:49:44;98691.41;;;8.69;66.95
62333;BME280;48624;49.812;8.562;2024-02-23T11:52:09;98696.41;;;8.82;67.64
62333;BME280;48624;49.812;8.562;2024-02-23T11:54:35;98685.59;;;8.95;67.55
62333;BME280;48624;49.812;8.562;2024-02-23T11:57:00;98687.84;;;9.09;67.21
62333;BME280;48624;49.812;8.562;2024-02-23T11:59:26;98688.53;;;8.92;66.83
62333;BME280;48624;49.812;8.562;2024-02-23T12:01:51;98690.78;;;9.26;66.48
62333;BME280;48624;49.812;8.562;2024-02-23T12:04:16;98692.00;;;9.22;67.08
62333;BME280;48624;49.812;8.562;2024-02-23T12:06:42;98694.66;;;9.41;68.97
62333;BME280;48624;49.812;8.562;2024-02-23T12:09:09;98697.97;;;9.04;69.55
62333;BME280;48624;49.812;8.562;2024-02-23T12:11:34;98700.19;;;8.79;73.09
62333;BME280;48624;49.812;8.562;2024-02-23T12:14:00;98708.38;;;8.35;74.88
62333;BME280;48624;49.812;8.562;2024-02-23T12:16:27;98712.66;;;8.67;74.41
62333;BME280;48624;49.812;8.562;2024-02-23T12:18:54;98708.06;;;8.59;75.27
62333;BME280;48624;49.812;8.562;2024-02-23T12:21:20;98711.81;;;8.67;74.21
62333;BME280;48624;49.812;8.562;2024-02-23T12:23:48;98704.53;;;8.49;74.05
62333;BME280;48624;49.812;8.562;2024-02-23T12:26:14;98700.78;;;8.52;75.49
62333;BME280;48624;49.812;8.562;2024-02-23T12:28:40;98711.34;;;8.52;75.77
62333;BME280;48624;49.812;8.562;2024-02-23T12:31:06;98701.53;;;8.54;75.01
62333;BME280;48624;49.812;8.562;2024-02-23T12:33:33;98705.19;;;8.41;76.28
62333;BME280;48624;49.812;8.562;2024-02-23T12:36:04;98704.75;;;8.77;73.55
62333;BME280;48624;49.812;8.562;2024-02-23T12:38:33;98707.22;;;8.59;78.57
62333;BME280;48624;49.812;8.562;2024-02-23T12:41:02;98703.19;;;8.55;78.69
62333;BME280;48624;49.812;8.562;2024-02-23T12:43:28;98701.25;;;8.57;77.76
62333;BME280;48624;49.812;8.562;2024-02-23T12:45:55;98692.94;;;8.71;79.10
62333;BME280;48624;49.812;8.562;2024-02-23T12:48:21;98696.75;;;9.08;77.10
62333;BME280;48624;49.812;8.562;2024-02-23T12:50:47;98693.41;;;9.06;73.68
62333;BME280;48624;49.812;8.562;2024-02-23T12:53:33;98690.59;;;8.88;71.17
62333;BME280;48624;49.812;8.562;2024-02-23T12:56:00;98693.94;;;8.90;74.72
62333;BME280;48624;49.812;8.562;2024-02-23T12:58:26;98698.00;;;8.94;76.50
62333;BME280;48624;49.812;8.562;2024-02-23T13:00:51;98686.44;;;9.05;76.94
62333;BME280;48624;49.812;8.562;2024-02-23T13:03:18;98681.16;;;8.95;77.38
62333;BME280;48624;49.812;8.562;2024-02-23T13:05:43;98690.06;;;9.14;74.49